createdAt,value
2023-02-11T00:02:46.834Z,67.01
2023-02-11T00:05:33.478Z,66.59
2023-02-11T00:08:19.253Z,66.84
2023-02-11T00:11:05.153Z,67.11
2023-02-11T00:13:50.570Z,66.89
2023-02-11T00:16:36.322Z,67.07
2023-02-11T00:19:21.975Z,67.04
2023-02-11T00:22:08.437Z,67.04
2023-02-11T00:24:54.505Z,66.76
2023-02-11T00:27:40.065Z,67.09
2023-02-11T00:30:26.224Z,67.19
2023-02-11T00:33:12.325Z,67.35
2023-02-11T00:35:57.929Z,67.71
2023-02-11T00:38:44.978Z,67.85
2023-02-11T00:41:31.531Z,67.51
2023-02-11T00:44:17.817Z,67.96
2023-02-11T00:47:06.680Z,67.65
2023-02-11T00:49:52.771Z,67.64
2023-02-11T00:52:38.588Z,67.74
2023-02-11T00:55:24.241Z,67.40
2023-02-11T00:58:10.097Z,67.64
2023-02-11T01:00:56.178Z,67.95
2023-02-11T01:03:43.211Z,67.76
2023-02-11T01:06:28.981Z,68.17
2023-02-11T01:09:14.437Z,68.12
2023-02-11T01:12:00.101Z,68.32
2023-02-11T01:14:45.889Z,68.14
2023-02-11T01:17:31.439Z,68.30
2023-02-11T01:20:23.185Z,68.59
2023-02-11T01:23:08.796Z,68.79
2023-02-11T01:25:55.283Z,69.22
2023-02-11T01:28:41.435Z,69.25
2023-02-11T01:31:27.668Z,68.68
2023-02-11T01:34:12.943Z,69.01
2023-02-11T01:36:59.551Z,68.96
2023-02-11T01:39:47.692Z,68.88
2023-02-11T01:42:33.852Z,68.94
2023-02-11T01:45:50.225Z,68.85
2023-02-11T01:48:41.354Z,68.96
2023-02-11T01:51:41.750Z,68.86
2023-02-11T01:54:53.613Z,68.98
2023-02-11T01:57:43.602Z,69.23
2023-02-11T02:00:38.981Z,69.27
2023-02-11T02:03:24.959Z,69.03
2023-02-11T02:06:19.643Z,68.89
2023-02-11T02:09:10.041Z,68.62
2023-02-11T02:11:56.307Z,68.93
2023-02-11T02:14:44.135Z,68.75
2023-02-11T02:17:43.820Z,68.74
2023-02-11T02:21:06.298Z,68.58
2023-02-11T02:24:16.579Z,68.56
2023-02-11T02:27:30.295Z,68.41
2023-02-11T02:30:28.161Z,69.12
2023-02-11T02:33:32.654Z,68.49
2023-02-11T02:36:28.413Z,68.63
2023-02-11T02:39:36.119Z,69.22
2023-02-11T02:42:22.828Z,69.62
2023-02-11T02:45:10.997Z,69.94
2023-02-11T02:47:56.976Z,69.67
2023-02-11T02:50:43.439Z,69.97
2023-02-11T02:53:50.247Z,69.65
2023-02-11T02:57:03.637Z,69.88
2023-02-11T03:00:15.153Z,69.89
2023-02-11T03:03:13.063Z,69.44
2023-02-11T03:06:09.716Z,69.06
2023-02-11T03:09:11.081Z,69.17
2023-02-11T03:11:57.271Z,68.80
2023-02-11T03:14:46.645Z,68.86
2023-02-11T03:17:35.632Z,69.23
2023-02-11T03:20:23.396Z,68.98
2023-02-11T03:23:17.200Z,68.69
2023-02-11T03:26:11.761Z,68.58
2023-02-11T03:29:15.612Z,68.22
2023-02-11T03:32:23.162Z,68.77
2023-02-11T03:35:17.347Z,68.48
2023-02-11T03:38:43.093Z,68.65
2023-02-11T03:41:31.590Z,68.50
2023-02-11T03:44:17.344Z,68.63
2023-02-11T03:47:05.201Z,68.52
2023-02-11T03:49:53.904Z,68.48
2023-02-11T03:52:40.308Z,68.11
2023-02-11T03:55:28.350Z,68.40
2023-02-11T03:58:13.938Z,67.75
2023-02-11T04:01:00.275Z,68.34
2023-02-11T04:03:45.868Z,68.26
2023-02-11T04:06:31.541Z,68.23
2023-02-11T04:09:17.376Z,68.11
2023-02-11T04:12:03.472Z,67.66
2023-02-11T04:14:49.518Z,67.79
2023-02-11T04:17:35.550Z,68.06
2023-02-11T04:20:21.507Z,68.04
2023-02-11T04:23:07.748Z,68.28
2023-02-11T04:25:53.307Z,67.90
2023-02-11T04:28:39.602Z,68.09
2023-02-11T04:31:25.781Z,67.80
2023-02-11T04:34:11.569Z,67.57
2023-02-11T04:36:57.416Z,67.93
2023-02-11T04:39:43.166Z,67.97
2023-02-11T04:42:29.012Z,67.81
2023-02-11T04:45:14.810Z,67.76
2023-02-11T04:48:02.503Z,68.11
2023-02-11T04:50:48.261Z,67.93
2023-02-11T04:53:33.903Z,67.42
2023-02-11T04:56:19.233Z,67.94
2023-02-11T04:59:06.217Z,67.91
2023-02-11T05:01:51.755Z,68.19
2023-02-11T05:04:37.592Z,67.70
2023-02-11T05:07:23.127Z,67.86
2023-02-11T05:10:09.205Z,67.74
2023-02-11T05:12:56.096Z,67.96
2023-02-11T05:15:41.605Z,67.77
2023-02-11T05:18:27.297Z,67.69
2023-02-11T05:21:16.661Z,68.06
2023-02-11T05:24:04.182Z,68.08
2023-02-11T05:26:50.075Z,68.23
2023-02-11T05:29:35.781Z,68.06
2023-02-11T05:32:21.924Z,68.12
2023-02-11T05:35:08.720Z,67.74
2023-02-11T05:37:54.643Z,67.73
2023-02-11T05:40:40.560Z,68.18
2023-02-11T05:43:26.199Z,67.73
2023-02-11T05:46:11.808Z,67.63
2023-02-11T05:48:57.624Z,67.70
2023-02-11T05:51:43.478Z,67.85
2023-02-11T05:54:29.239Z,67.98
2023-02-11T05:57:15.400Z,67.92
2023-02-11T06:00:00.649Z,68.15
2023-02-11T06:02:46.272Z,67.88
2023-02-11T06:05:32.726Z,67.84
2023-02-11T06:08:18.942Z,68.33
2023-02-11T06:11:08.135Z,67.66
2023-02-11T06:13:53.743Z,68.25
2023-02-11T06:16:39.556Z,68.43
2023-02-11T06:19:24.794Z,67.86
2023-02-11T06:22:10.609Z,68.28
2023-02-11T06:25:01.735Z,68.32
2023-02-11T06:27:47.876Z,68.34
2023-02-11T06:30:33.460Z,68.28
2023-02-11T06:33:19.101Z,68.20
2023-02-11T06:36:12.213Z,68.70
2023-02-11T06:38:58.117Z,68.71
2023-02-11T06:41:43.903Z,68.68
2023-02-11T06:44:29.622Z,68.67
2023-02-11T06:47:15.348Z,68.24
2023-02-11T06:50:00.835Z,68.41
2023-02-11T06:52:46.256Z,68.51
2023-02-11T06:55:32.070Z,68.46
2023-02-11T06:58:17.540Z,68.09
2023-02-11T07:01:12.713Z,68.57
2023-02-11T07:03:58.631Z,68.60
2023-02-11T07:06:44.053Z,68.57
2023-02-11T07:09:29.805Z,68.47
2023-02-11T07:12:15.260Z,68.60
2023-02-11T07:15:00.750Z,68.61
2023-02-11T07:17:46.361Z,68.63
2023-02-11T07:20:32.235Z,68.89
2023-02-11T07:23:17.840Z,68.71
2023-02-11T07:26:10.583Z,68.48
2023-02-11T07:28:56.762Z,68.79
2023-02-11T07:31:42.591Z,68.18
2023-02-11T07:34:28.428Z,68.55
2023-02-11T07:37:14.193Z,68.60
2023-02-11T07:39:59.917Z,68.13
2023-02-11T07:42:45.711Z,68.33
2023-02-11T07:45:31.433Z,68.19
2023-02-11T07:48:17.026Z,68.22
2023-02-11T07:51:23.172Z,68.42
2023-02-11T07:54:10.646Z,68.41
2023-02-11T07:56:56.232Z,68.00
2023-02-11T07:59:41.715Z,68.34
2023-02-11T08:02:27.259Z,68.81
2023-02-11T08:05:13.059Z,68.84
2023-02-11T08:07:58.799Z,68.80
2023-02-11T08:10:44.373Z,68.64
2023-02-11T08:13:30.055Z,68.71
2023-02-11T08:16:25.423Z,68.47
2023-02-11T08:19:14.516Z,68.58
2023-02-11T08:22:01.351Z,68.24
2023-02-11T08:24:46.933Z,68.50
2023-02-11T08:27:33.006Z,68.20
2023-02-11T08:30:18.788Z,68.34
2023-02-11T08:33:04.286Z,68.24
2023-02-11T08:35:50.034Z,68.18
2023-02-11T08:38:35.780Z,68.10
2023-02-11T08:41:21.013Z,68.14
2023-02-11T08:44:06.699Z,67.78
2023-02-11T08:46:52.695Z,67.86
2023-02-11T08:49:38.578Z,68.13
2023-02-11T08:52:24.523Z,68.13
2023-02-11T08:55:11.158Z,67.66
2023-02-11T08:57:57.359Z,68.70
2023-02-11T09:00:46.136Z,68.20
2023-02-11T09:03:34.908Z,67.77
2023-02-11T09:06:22.877Z,68.13
2023-02-11T09:09:13.722Z,68.46
2023-02-11T09:12:01.233Z,68.04
2023-02-11T09:14:48.103Z,68.49
2023-02-11T09:17:34.015Z,68.43
2023-02-11T09:20:19.784Z,68.53
2023-02-11T09:23:05.873Z,69.13
2023-02-11T09:26:09.798Z,69.34
2023-02-11T09:28:56.026Z,69.59
2023-02-11T09:31:42.165Z,69.97
2023-02-11T09:34:27.893Z,70.17
2023-02-11T09:37:13.440Z,69.94
2023-02-11T09:39:59.347Z,70.57
2023-02-11T09:43:01.735Z,70.12
2023-02-11T09:45:50.173Z,70.28
2023-02-11T09:48:42.082Z,70.44
2023-02-11T09:51:43.295Z,70.49
2023-02-11T09:54:36.498Z,70.13
2023-02-11T09:57:29.028Z,69.86
2023-02-11T10:00:29.410Z,70.36
2023-02-11T10:04:05.838Z,70.43
2023-02-11T10:07:07.766Z,70.11
2023-02-11T10:10:04.956Z,69.81
2023-02-11T10:13:23.359Z,69.87
2023-02-11T10:16:49.901Z,69.92
2023-02-11T10:20:00.447Z,70.04
2023-02-11T10:22:50.282Z,69.59
2023-02-11T10:25:45.437Z,69.79
2023-02-11T10:28:34.479Z,69.99
2023-02-11T10:31:28.808Z,69.97
2023-02-11T10:34:15.223Z,69.90
2023-02-11T10:37:01.234Z,69.39
2023-02-11T10:39:49.823Z,69.67
2023-02-11T10:42:36.217Z,69.49
2023-02-11T10:45:27.261Z,69.74
2023-02-11T10:48:37.493Z,69.19
2023-02-11T10:51:28.784Z,69.46
2023-02-11T10:54:24.588Z,69.82
2023-02-11T10:57:20.074Z,69.39
2023-02-11T11:00:27.505Z,69.51
2023-02-11T11:03:22.926Z,68.99
2023-02-11T11:06:09.853Z,68.97
2023-02-11T11:08:55.464Z,69.32
2023-02-11T11:11:53.858Z,69.15
2023-02-11T11:14:39.284Z,69.08
2023-02-11T11:17:29.372Z,69.30
2023-02-11T11:20:14.855Z,69.11
2023-02-11T11:23:17.495Z,69.41
2023-02-11T11:26:09.997Z,69.51
2023-02-11T11:29:09.724Z,69.34
2023-02-11T11:31:59.537Z,69.14
2023-02-11T11:34:52.843Z,69.03
2023-02-11T11:37:39.562Z,69.06
2023-02-11T11:40:31.185Z,69.04
2023-02-11T11:43:23.044Z,69.02
2023-02-11T11:46:12.426Z,69.24
2023-02-11T11:49:18.145Z,69.32
2023-02-11T11:52:41.650Z,69.24
2023-02-11T11:55:35.598Z,69.11
2023-02-11T11:58:23.322Z,69.14
2023-02-11T12:01:27.476Z,69.41
2023-02-11T12:04:40.068Z,69.38
2023-02-11T12:07:28.435Z,68.92
2023-02-11T12:10:35.393Z,69.17
2023-02-11T12:13:38.834Z,69.26
2023-02-11T12:16:27.391Z,69.14
2023-02-11T12:19:22.322Z,68.86
2023-02-11T12:22:12.874Z,68.92
2023-02-11T12:25:07.823Z,68.77
2023-02-11T12:28:07.773Z,68.83
2023-02-11T12:31:13.403Z,68.56
2023-02-11T12:34:15.816Z,68.74
2023-02-11T12:37:23.035Z,68.44
2023-02-11T12:40:28.747Z,68.32
2023-02-11T12:43:24.056Z,68.22
2023-02-11T12:46:30.814Z,68.22
2023-02-11T12:49:30.109Z,68.42
2023-02-11T12:52:38.787Z,68.08
2023-02-11T12:55:26.077Z,67.93
2023-02-11T12:58:35.615Z,68.86
2023-02-11T13:01:39.482Z,68.22
2023-02-11T13:04:54.190Z,68.50
2023-02-11T13:07:45.320Z,68.16
2023-02-11T13:10:38.735Z,68.25
2023-02-11T13:13:24.476Z,68.30
2023-02-11T13:16:24.054Z,68.16
2023-02-11T13:19:12.811Z,68.60
2023-02-11T13:22:17.376Z,68.99
2023-02-11T13:25:50.555Z,68.43
2023-02-11T13:28:50.540Z,68.50
2023-02-11T13:31:36.374Z,68.50
2023-02-11T13:34:46.210Z,68.48
2023-02-11T13:37:38.921Z,68.65
2023-02-11T13:40:27.572Z,68.28
2023-02-11T13:43:23.597Z,67.71
2023-02-11T13:46:13.401Z,68.13
2023-02-11T13:48:59.659Z,68.49
2023-02-11T13:51:45.665Z,68.47
2023-02-11T13:54:36.008Z,68.22
2023-02-11T13:57:23.477Z,68.37
2023-02-11T14:00:33.937Z,68.48
2023-02-11T14:03:47.004Z,68.72
2023-02-11T14:06:51.291Z,68.30
2023-02-11T14:09:40.267Z,68.01
2023-02-11T14:12:33.479Z,68.48
2023-02-11T14:15:22.122Z,68.52
2023-02-11T14:18:47.220Z,68.16
2023-02-11T14:21:37.001Z,68.52
2023-02-11T14:24:25.861Z,68.42
2023-02-11T14:27:16.302Z,69.03
2023-02-11T14:30:07.790Z,68.88
2023-02-11T14:33:18.221Z,68.52
2023-02-11T14:36:27.128Z,68.61
2023-02-11T14:40:02.690Z,69.13
2023-02-11T14:42:48.553Z,68.97
2023-02-11T14:45:37.042Z,68.97
2023-02-11T14:48:37.004Z,69.10
2023-02-11T14:51:31.681Z,69.27
2023-02-11T14:54:25.382Z,68.85
2023-02-11T14:57:17.015Z,68.55
2023-02-11T15:00:13.879Z,68.30
2023-02-11T15:02:59.788Z,68.57
2023-02-11T15:05:45.768Z,69.25
2023-02-11T15:08:33.557Z,69.13
2023-02-11T15:11:22.539Z,69.00
2023-02-11T15:14:16.778Z,68.85
2023-02-11T15:17:09.084Z,68.96
2023-02-11T15:19:58.835Z,69.41
2023-02-11T15:22:46.704Z,69.21
2023-02-11T15:25:34.156Z,69.14
2023-02-11T15:28:29.395Z,69.44
2023-02-11T15:31:17.423Z,69.43
2023-02-11T15:34:08.132Z,69.35
2023-02-11T15:36:54.394Z,69.58
2023-02-11T15:39:42.568Z,69.38
2023-02-11T15:42:35.814Z,69.45
2023-02-11T15:45:29.668Z,69.25
2023-02-11T15:48:37.338Z,69.30
2023-02-11T15:51:29.089Z,69.56
2023-02-11T15:54:21.324Z,69.56
2023-02-11T15:57:10.472Z,69.58
2023-02-11T15:59:56.988Z,70.07
2023-02-11T16:02:46.696Z,69.58
2023-02-11T16:05:37.961Z,69.72
2023-02-11T16:08:29.937Z,69.78
2023-02-11T16:11:25.300Z,69.78
2023-02-11T16:14:37.228Z,70.06
2023-02-11T16:17:27.895Z,69.79
2023-02-11T16:20:20.338Z,70.30
2023-02-11T16:23:07.960Z,70.18
2023-02-11T16:26:22.352Z,70.50
2023-02-11T16:29:22.436Z,70.49
2023-02-11T16:32:13.903Z,70.09
2023-02-11T16:35:01.513Z,70.29
2023-02-11T16:37:47.391Z,70.25
2023-02-11T16:40:33.584Z,70.66
2023-02-11T16:43:20.207Z,70.35
2023-02-11T16:46:06.077Z,70.71
2023-02-11T16:48:51.271Z,70.90
2023-02-11T16:51:39.994Z,70.54
2023-02-11T16:54:25.797Z,70.61
2023-02-11T16:57:20.339Z,70.91
2023-02-11T17:00:07.580Z,71.19
2023-02-11T17:02:53.021Z,70.97
2023-02-11T17:05:54.432Z,71.18
2023-02-11T17:08:41.925Z,71.14
2023-02-11T17:11:27.378Z,71.50
2023-02-11T17:14:13.068Z,71.55
2023-02-11T17:16:59.188Z,71.38
2023-02-11T17:19:45.300Z,71.40
2023-02-11T17:22:31.110Z,71.96
2023-02-11T17:25:17.441Z,71.64
2023-02-11T17:28:04.649Z,71.76
2023-02-11T17:30:50.515Z,71.71
2023-02-11T17:33:37.836Z,71.62
2023-02-11T17:36:23.535Z,71.55
2023-02-11T17:39:09.503Z,71.49
2023-02-11T17:41:55.180Z,71.90
2023-02-11T17:44:41.054Z,71.40
2023-02-11T17:47:26.797Z,71.65
2023-02-11T17:50:12.595Z,71.84
2023-02-11T17:52:58.255Z,71.60
2023-02-11T17:55:43.802Z,71.80
2023-02-11T17:58:29.676Z,72.07
2023-02-11T18:01:15.571Z,71.84
2023-02-11T18:04:01.828Z,71.99
2023-02-11T18:06:47.544Z,71.70
2023-02-11T18:09:38.266Z,72.49
2023-02-11T18:12:27.478Z,71.84
2023-02-11T18:15:13.414Z,72.04
2023-02-11T18:17:58.953Z,72.14
2023-02-11T18:20:46.921Z,72.08
2023-02-11T18:23:32.765Z,72.08
2023-02-11T18:26:20.761Z,72.51
2023-02-11T18:29:07.120Z,72.46
2023-02-11T18:31:55.661Z,72.58
2023-02-11T18:34:41.921Z,72.84
2023-02-11T18:37:27.609Z,72.19
2023-02-11T18:40:15.369Z,72.61
2023-02-11T18:43:01.062Z,72.87
2023-02-11T18:45:48.666Z,72.75
2023-02-11T18:48:34.642Z,72.41
2023-02-11T18:51:20.083Z,73.07
2023-02-11T18:54:05.968Z,73.03
2023-02-11T18:56:51.392Z,72.92
2023-02-11T18:59:37.150Z,72.95
2023-02-11T19:02:25.021Z,73.12
2023-02-11T19:05:11.533Z,72.86
2023-02-11T19:07:57.442Z,73.53
2023-02-11T19:10:45.474Z,73.19
2023-02-11T19:13:31.621Z,73.21
2023-02-11T19:16:20.042Z,73.68
2023-02-11T19:19:06.154Z,73.43
2023-02-11T19:21:52.164Z,73.95
2023-02-11T19:24:38.743Z,73.56
2023-02-11T19:27:24.664Z,73.16
2023-02-11T19:30:11.046Z,73.74
2023-02-11T19:32:57.961Z,73.74
2023-02-11T19:35:43.796Z,73.36
2023-02-11T19:38:29.812Z,73.63
2023-02-11T19:41:22.529Z,73.80
2023-02-11T19:44:09.670Z,73.71
2023-02-11T19:46:55.766Z,74.07
2023-02-11T19:49:41.427Z,74.04
2023-02-11T19:52:27.436Z,74.28
2023-02-11T19:55:13.417Z,74.10
2023-02-11T19:57:59.383Z,74.34
2023-02-11T20:00:44.871Z,74.48
2023-02-11T20:03:30.461Z,74.66
2023-02-11T20:06:19.037Z,74.95
2023-02-11T20:09:07.940Z,74.42
2023-02-11T20:11:53.355Z,74.83
2023-02-11T20:14:38.639Z,75.06
2023-02-11T20:17:25.669Z,75.18
2023-02-11T20:20:12.923Z,74.81
2023-02-11T20:22:58.880Z,75.16
2023-02-11T20:25:44.233Z,75.54
2023-02-11T20:28:29.843Z,75.29
2023-02-11T20:31:16.430Z,74.82
2023-02-11T20:34:02.307Z,74.81
2023-02-11T20:36:54.406Z,75.21
2023-02-11T20:39:42.021Z,74.98
2023-02-11T20:42:28.061Z,75.03
2023-02-11T20:45:14.128Z,74.76
2023-02-11T20:47:59.814Z,75.16
2023-02-11T20:50:48.209Z,75.17
2023-02-11T20:53:39.048Z,74.79
2023-02-11T20:56:28.973Z,74.63
2023-02-11T20:59:14.922Z,75.12
2023-02-11T21:02:01.702Z,75.50
2023-02-11T21:04:47.285Z,74.94
2023-02-11T21:07:32.930Z,75.23
2023-02-11T21:10:19.049Z,75.54
2023-02-11T21:13:04.902Z,75.43
2023-02-11T21:15:57.091Z,75.86
2023-02-11T21:18:44.119Z,75.60
2023-02-11T21:21:30.421Z,75.82
2023-02-11T21:24:15.890Z,75.71
2023-02-11T21:27:02.082Z,75.83
2023-02-11T21:29:54.105Z,75.97
2023-02-11T21:32:40.897Z,75.76
2023-02-11T21:35:26.646Z,75.86
2023-02-11T21:38:12.565Z,76.02
2023-02-11T21:41:04.283Z,75.99
2023-02-11T21:43:50.992Z,76.06
2023-02-11T21:46:36.813Z,76.08
2023-02-11T21:49:22.508Z,75.77
2023-02-11T21:52:07.907Z,75.81
2023-02-11T21:54:53.417Z,75.74
2023-02-11T21:57:40.357Z,76.39
2023-02-11T22:00:26.128Z,76.41
2023-02-11T22:03:12.555Z,76.35
2023-02-11T22:05:58.170Z,76.32
2023-02-11T22:08:43.976Z,76.62
2023-02-11T22:11:29.539Z,76.59
2023-02-11T22:14:15.398Z,76.46
2023-02-11T22:17:01.651Z,77.08
2023-02-11T22:19:47.125Z,77.01
2023-02-11T22:22:32.645Z,77.17
2023-02-11T22:25:18.638Z,77.02
2023-02-11T22:28:04.364Z,76.77
2023-02-11T22:30:57.211Z,76.89
2023-02-11T22:33:43.208Z,77.17
2023-02-11T22:36:40.803Z,77.42
2023-02-11T22:39:26.880Z,76.84
2023-02-11T22:42:12.426Z,77.30
2023-02-11T22:44:57.861Z,77.24
2023-02-11T22:47:43.625Z,77.36
2023-02-11T22:50:29.278Z,77.38
2023-02-11T22:53:14.939Z,77.72
2023-02-11T22:56:05.937Z,78.01
2023-02-11T22:58:52.400Z,77.75
2023-02-11T23:01:37.876Z,78.05
2023-02-11T23:04:23.548Z,77.77
2023-02-11T23:07:09.487Z,77.79
2023-02-11T23:09:55.471Z,78.00
2023-02-11T23:12:41.180Z,78.12
2023-02-11T23:15:27.057Z,78.06
2023-02-11T23:18:13.579Z,78.01
2023-02-11T23:21:06.901Z,77.85
2023-02-11T23:23:57.739Z,78.05
2023-02-11T23:26:44.353Z,78.21
2023-02-11T23:29:29.852Z,78.47
2023-02-11T23:32:15.634Z,78.20
2023-02-11T23:35:00.946Z,78.42
2023-02-11T23:37:46.515Z,78.21
2023-02-11T23:40:32.705Z,78.11
2023-02-11T23:43:18.240Z,78.40
2023-02-11T23:46:04.435Z,78.67
2023-02-11T23:48:50.988Z,78.59
2023-02-11T23:51:36.471Z,77.95
2023-02-11T23:54:22.252Z,78.45
2023-02-11T23:57:08.038Z,77.89
2023-02-11T23:59:53.510Z,78.15
